Aérodrome :
LOGIN :

S'inscrire | Disclaimer

   EN    FR    IT 

 










Légende :    VFR   VFR Marginal   IFR   IFR Intensif   IFR Très Intensif
Visi : 
Plafond : 
>= 8 km
>= 3000ft
5 à 8 km
1000 à 3000 ft
1500m à 5 km
500 à 1000 ft
800 à 1500m
200 à 500 ft
< 800m
< 200 ft
Symboles :   Orages  Brouillard  Fortes neiges  Fortes précipitations  Vent > 20 kt
SIGMETs :   Divers  Orages  Givrage  Turbulence  Onde Orograph.  Cendres Volcan.






- Altitude de l'aérodrome : 15 ft
- Code IATA : FCO


LIRF - Roma Leonardo da Vinci Fiumicino

DERNIER METAR :
  • 060920Z VRB04KT CAVOK 29/14 Q1012 NOSIG

METARs EXPIRÉS :
  • 060850Z 34006KT 280V060 CAVOK 28/13 Q1012 NOSIG
  • 060820Z 03007KT 360V060 CAVOK 27/14 Q1012 NOSIG
  • 060750Z 35007KT 320V050 CAVOK 26/14 Q1012 NOSIG
  • 060720Z 01006KT 330V050 CAVOK 25/14 Q1012 NOSIG
  • 060650Z 35004KT 310V060 CAVOK 24/14 Q1012 NOSIG

TAF TAF LIRF
Valide du 06 à 06h jusqu'au 07 à 12h UTC


060531Z 0606/0712 VRB04KT 9999 FEW030
BECMG 0608/0610 26012KT
BECMG 0616/0618 VRB04KT
BECMG 0620/0622 03010KT



MET'MAP, la Météo Aéronautique d'un coup d'oeil ! - Copyright ORBIFLY Décembre 2007 - Disclaimer

ORBIFLY MET'MAP TEAM :

Programmation & Développement : Alexandra Zaïnal
Sur une idée originale de : Baudouin d'Aumeries
Assistance à la programmation : Marc-Olivier Méhu
Soutien technique & logistique : Manuel Goepfert

Contact : metmap@orbifly.com




SOURCES & CREDITS :

   NOAA